Bookmark and Share
Track history (hours):
 

Maersk Damietta

Last reported at 2014-Apr-23 14:21 UTC. Time now 2014-Apr-25 00:34 UTC.
Position N 39°29' W 073°54'.

Length 293 m; draft 11.2 m.

Type: Ship (hazmat cat B). MMSI: 636091506.

NotesDate/timePositionNaut miles runAvg speedWind from/ knotsBaromVisibWave heightAir tempDewpointWater temp
2014-Apr-23 14:21N 39°29' W 073°54'1316.0
2014-Apr-23 13:33N 39°41' W 073°53'1716.1
2014-Apr-23 12:31N 39°58' W 073°51'2611.6
2014-Apr-23 10:19N 40°24' W 073°48'7 8.5
2014-Apr-23 09:30N 40°29' W 073°54'1111.7
2014-Apr-23 08:33N 40°38' W 074°03'5 4.5
2014-Apr-23 07:33N 40°40' W 074°09'0 0.2
2014-Apr-23 06:30N 40°40' W 074°09'0 0.0
2014-Apr-23 05:29N 40°40' W 074°09'0 0.0
2014-Apr-23 04:30N 40°40' W 074°09'0 0.0
2014-Apr-23 03:32N 40°40' W 074°09'0 0.0
2014-Apr-23 02:32N 40°40' W 074°09'0 0.0
2014-Apr-23 01:32N 40°40' W 074°09'0 0.0
2014-Apr-23 00:31N 40°40' W 074°09'0 0.0
2014-Apr-22 23:30N 40°40' W 074°09'0 0.0
2014-Apr-22 22:33N 40°40' W 074°09'0 0.0
2014-Apr-22 21:32N 40°40' W 074°09'0 0.0
2014-Apr-22 20:31N 40°40' W 074°09'0 0.0
2014-Apr-22 19:31N 40°40' W 074°09'0 0.0
2014-Apr-22 18:31N 40°40' W 074°09'0 0.0
2014-Apr-22 17:31N 40°40' W 074°09'0 0.0
2014-Apr-22 16:29N 40°40' W 074°09'1 0.7
2014-Apr-22 15:34N 40°39' W 074°09'5 5.4
2014-Apr-22 14:34N 40°37' W 074°03'1211.6
2014-Apr-22 13:33N 40°28' W 073°52'7 6.7
2014-Apr-22 12:33N 40°27' W 073°43'10 9.6
2014-Apr-22 11:33N 40°28' W 073°31'1413.8
2014-Apr-22 10:33N 40°29' W 073°13'1716.9
2014-Apr-22 09:33N 40°30' W 072°50'1717.3
2014-Apr-22 08:34N 40°31' W 072°28'1717.0
2014-Apr-22 07:33N 40°31' W 072°05'1717.0
2014-Apr-22 06:33N 40°31' W 071°43'1716.9
2014-Apr-22 05:33N 40°32' W 071°21'1716.9
2014-Apr-22 04:34N 40°32' W 070°59'1717.0
2014-Apr-22 03:33N 40°32' W 070°36'1716.9
2014-Apr-22 02:33N 40°33' W 070°14'1717.0
2014-Apr-22 01:33N 40°33' W 069°52'1717.1
2014-Apr-22 00:33N 40°34' W 069°29'1717.1
2014-Apr-21 23:33N 40°33' W 069°07'1615.5
2014-Apr-21 22:33N 40°30' W 068°46'1111.6
2014-Apr-21 21:33N 40°28' W 068°32'1817.3
2014-Apr-21 20:32N 40°23' W 068°09'2417.8
2014-Apr-21 19:10N 40°17' W 067°38'1416.4
2014-Apr-21 18:20N 40°14' W 067°21'  
2014-Apr-14 13:34N 35°58' W 005°34'12 6.2
2014-Apr-14 11:32N 36°08' W 005°26'0 0.0
2014-Apr-14 10:31N 36°08' W 005°26'0 0.0
2014-Apr-14 09:33N 36°08' W 005°26'0 0.0
2014-Apr-14 08:32N 36°08' W 005°26'0 0.0
2014-Apr-14 06:32N 36°08' W 005°26'0 0.0
2014-Apr-14 05:31N 36°08' W 005°26'0 0.0
2014-Apr-13 22:33N 36°08' W 005°26'0 0.1
2014-Apr-13 21:33N 36°08' W 005°26'0 0.0
2014-Apr-13 20:33N 36°08' W 005°26'0 0.1
2014-Apr-13 19:33N 36°08' W 005°26'0 0.0
2014-Apr-13 18:29N 36°08' W 005°26'3 2.9
2014-Apr-13 17:33N 36°07' W 005°23'5 5.5
2014-Apr-13 16:33N 36°05' W 005°17'4 3.6
2014-Apr-13 15:33N 36°05' W 005°12'  

Dump ship's entire track history

sailing weather and tide predictions

Maersk Damietta — A8OU4 — position and weather